createdAt,value
2022-11-18T00:01:15.483Z,3.90
2022-11-18T00:03:43.200Z,4.00
2022-11-18T00:06:21.508Z,4.00
2022-11-18T00:08:48.480Z,4.10
2022-11-18T00:11:36.647Z,4.10
2022-11-18T00:14:20.250Z,4.10
2022-11-18T00:17:02.115Z,4.10
2022-11-18T00:19:33.934Z,4.10
2022-11-18T00:22:01.120Z,4.00
2022-11-18T00:24:28.348Z,4.00
2022-11-18T00:26:55.641Z,4.20
2022-11-18T00:29:23.204Z,4.30
2022-11-18T00:31:49.735Z,4.30
2022-11-18T00:34:18.491Z,4.30
2022-11-18T00:36:46.887Z,4.30
2022-11-18T00:39:17.440Z,4.30
2022-11-18T00:42:03.609Z,4.40
2022-11-18T00:44:30.432Z,4.40
2022-11-18T00:46:57.369Z,4.40
2022-11-18T00:49:24.078Z,4.40
2022-11-18T00:51:50.645Z,4.40
2022-11-18T00:54:17.530Z,4.40
2022-11-18T00:56:43.984Z,4.20
2022-11-18T00:59:10.468Z,4.20
2022-11-18T01:01:37.021Z,4.20
2022-11-18T01:04:03.968Z,4.30
2022-11-18T01:06:30.471Z,4.50
2022-11-18T01:08:56.995Z,4.40
2022-11-18T01:11:41.747Z,4.40
2022-11-18T01:14:08.197Z,4.30
2022-11-18T01:16:34.859Z,4.20
2022-11-18T01:19:01.466Z,4.10
2022-11-18T01:21:29.087Z,4.20
2022-11-18T01:23:55.552Z,4.30
2022-11-18T01:26:22.100Z,4.30
2022-11-18T01:28:48.650Z,4.30
2022-11-18T01:31:18.763Z,4.30
2022-11-18T01:33:46.341Z,4.30
2022-11-18T01:36:31.130Z,4.30
2022-11-18T01:38:57.707Z,4.30
2022-11-18T01:41:26.062Z,4.30
2022-11-18T01:44:02.485Z,4.50
2022-11-18T01:46:32.620Z,4.50
2022-11-18T01:49:14.858Z,4.50
2022-11-18T01:52:02.860Z,4.40
2022-11-18T01:54:42.101Z,4.50
2022-11-18T01:57:21.689Z,4.50
2022-11-18T01:59:54.497Z,4.50
2022-11-18T02:02:22.079Z,4.50
2022-11-18T02:04:52.392Z,4.50
2022-11-18T02:07:21.113Z,4.50
2022-11-18T02:09:47.819Z,4.60
2022-11-18T02:12:14.479Z,4.60
2022-11-18T02:14:46.164Z,4.60
2022-11-18T02:18:09.968Z,4.70
2022-11-18T02:20:42.103Z,4.60
2022-11-18T02:24:50.544Z,4.50
2022-11-18T02:29:44.872Z,4.50
2022-11-18T02:32:47.282Z,4.40
2022-11-18T02:35:29.245Z,4.40
2022-11-18T02:38:06.680Z,4.40
2022-11-18T02:40:45.450Z,4.30
2022-11-18T02:43:28.099Z,4.50
2022-11-18T02:46:01.804Z,4.40
2022-11-18T02:48:33.215Z,4.20
2022-11-18T02:51:02.879Z,4.10
2022-11-18T02:53:32.988Z,4.10
2022-11-18T02:56:02.421Z,4.10
2022-11-18T02:58:29.028Z,4.30
2022-11-18T03:00:59.400Z,4.30
2022-11-18T03:03:30.783Z,4.20
2022-11-18T03:06:37.758Z,4.20
2022-11-18T03:09:36.102Z,4.00
2022-11-18T03:14:24.394Z,4.00
2022-11-18T03:17:24.973Z,3.90
2022-11-18T03:20:24.291Z,4.00
2022-11-18T03:23:59.294Z,4.20
2022-11-18T03:26:34.284Z,4.20
2022-11-18T03:29:17.852Z,4.30
2022-11-18T03:32:09.854Z,4.40
2022-11-18T03:34:44.720Z,4.40
2022-11-18T03:37:15.387Z,4.40
2022-11-18T03:39:57.093Z,4.40
2022-11-18T03:42:39.854Z,4.40
2022-11-18T03:45:37.747Z,4.30
2022-11-18T03:48:33.493Z,4.30
2022-11-18T03:51:07.536Z,4.30
2022-11-18T03:53:42.105Z,4.30
2022-11-18T03:56:24.631Z,4.30
2022-11-18T03:59:06.601Z,4.30
2022-11-18T04:01:55.008Z,4.40
2022-11-18T04:04:24.473Z,4.40
2022-11-18T04:08:19.068Z,4.40
2022-11-18T04:12:44.297Z,4.40
2022-11-18T04:15:11.805Z,4.50
2022-11-18T04:17:42.253Z,4.50
2022-11-18T04:20:21.308Z,4.50
2022-11-18T04:22:48.074Z,4.50
2022-11-18T04:25:14.885Z,4.50
2022-11-18T04:27:41.462Z,4.60
2022-11-18T04:30:09.331Z,4.50
2022-11-18T04:32:35.883Z,4.50
2022-11-18T04:35:02.531Z,4.50
2022-11-18T04:37:29.024Z,4.50
2022-11-18T04:39:55.465Z,4.40
2022-11-18T04:42:21.975Z,4.40
2022-11-18T04:44:48.480Z,4.40
2022-11-18T04:47:14.956Z,4.30
2022-11-18T04:49:41.457Z,4.30
2022-11-18T04:52:08.052Z,4.40
2022-11-18T04:54:34.516Z,4.40
2022-11-18T04:57:00.961Z,4.40
2022-11-18T04:59:29.442Z,4.50
2022-11-18T05:01:58.651Z,4.40
2022-11-18T05:04:29.993Z,4.40
2022-11-18T05:06:56.708Z,4.40
2022-11-18T05:09:28.788Z,4.30
2022-11-18T05:12:16.413Z,4.30
2022-11-18T05:14:46.692Z,4.30
2022-11-18T05:17:16.021Z,4.30
2022-11-18T05:19:42.469Z,4.20
2022-11-18T05:22:08.980Z,4.20
2022-11-18T05:24:35.506Z,4.30
2022-11-18T05:27:02.070Z,4.30
2022-11-18T05:29:28.572Z,4.30
2022-11-18T05:31:55.108Z,4.20
2022-11-18T05:34:21.714Z,4.30
2022-11-18T05:36:48.517Z,4.30
2022-11-18T05:39:15.400Z,4.30
2022-11-18T05:43:03.526Z,4.30
2022-11-18T05:45:30.067Z,4.30
2022-11-18T05:47:59.667Z,4.10
2022-11-18T05:50:26.382Z,4.00
2022-11-18T05:52:52.849Z,4.00
2022-11-18T05:55:22.546Z,4.10
2022-11-18T05:57:49.655Z,4.00
2022-11-18T06:00:17.550Z,3.90
2022-11-18T06:02:47.604Z,4.00
2022-11-18T06:05:16.339Z,4.10
2022-11-18T06:07:45.110Z,4.10
2022-11-18T06:10:39.863Z,4.00
2022-11-18T06:13:11.263Z,3.90
2022-11-18T06:15:43.067Z,3.90
2022-11-18T06:18:24.686Z,4.00
2022-11-18T06:20:58.929Z,4.00
2022-11-18T06:23:28.264Z,4.10
2022-11-18T06:25:54.892Z,4.10
2022-11-18T06:28:22.876Z,4.10
2022-11-18T06:30:49.437Z,4.10
2022-11-18T06:33:15.965Z,4.10
2022-11-18T06:35:43.271Z,4.20
2022-11-18T06:38:09.800Z,4.20
2022-11-18T06:40:36.841Z,4.20
2022-11-18T06:43:29.602Z,4.30
2022-11-18T06:46:22.204Z,4.30
2022-11-18T06:48:48.826Z,4.30
2022-11-18T06:51:15.491Z,4.40
2022-11-18T06:53:42.609Z,4.40
2022-11-18T06:56:13.233Z,4.50
2022-11-18T06:58:40.405Z,4.50
2022-11-18T07:01:22.962Z,4.60
2022-11-18T07:03:50.458Z,4.70
2022-11-18T07:06:23.617Z,4.60
2022-11-18T07:08:51.423Z,4.70
2022-11-18T07:11:23.273Z,4.80
2022-11-18T07:13:50.261Z,4.80
2022-11-18T07:16:23.275Z,4.90
2022-11-18T07:18:51.918Z,5.10
2022-11-18T07:21:25.111Z,5.10
2022-11-18T07:23:52.658Z,5.20
2022-11-18T07:26:19.675Z,5.20
2022-11-18T07:28:46.445Z,5.30
2022-11-18T07:31:17.337Z,5.40
2022-11-18T07:33:45.746Z,5.50
2022-11-18T07:36:18.909Z,5.50
2022-11-18T07:38:46.150Z,5.50
2022-11-18T07:41:19.445Z,5.40
2022-11-18T07:43:47.309Z,5.50
2022-11-18T07:46:22.726Z,5.50
2022-11-18T07:48:52.301Z,5.50
2022-11-18T07:51:22.532Z,5.50
2022-11-18T07:53:49.533Z,5.60
2022-11-18T07:56:17.803Z,5.60
2022-11-18T07:58:45.286Z,5.60
2022-11-18T08:01:20.562Z,5.70
2022-11-18T08:03:47.378Z,5.60
2022-11-18T08:06:17.964Z,5.50
2022-11-18T08:08:45.625Z,5.50
2022-11-18T08:11:21.838Z,5.50
2022-11-18T08:13:49.250Z,5.50
2022-11-18T08:16:19.722Z,5.60
2022-11-18T08:18:47.238Z,5.70
2022-11-18T08:21:15.767Z,5.70
2022-11-18T08:23:48.267Z,5.70
2022-11-18T08:26:15.039Z,5.60
2022-11-18T08:28:43.070Z,5.60
2022-11-18T08:31:23.985Z,5.70
2022-11-18T08:34:27.288Z,5.80
2022-11-18T08:36:55.880Z,5.70
2022-11-18T08:39:22.398Z,5.80
2022-11-18T08:41:48.875Z,5.90
2022-11-18T08:44:16.857Z,5.90
2022-11-18T08:46:46.849Z,5.90
2022-11-18T08:49:13.470Z,5.90
2022-11-18T08:51:39.975Z,6.00
2022-11-18T08:54:06.502Z,6.10
2022-11-18T08:56:33.161Z,6.20
2022-11-18T08:58:59.710Z,6.30
2022-11-18T09:01:26.819Z,6.30
2022-11-18T09:03:53.403Z,6.30
2022-11-18T09:06:24.000Z,6.20
2022-11-18T09:08:50.659Z,6.30
2022-11-18T09:11:24.597Z,6.30
2022-11-18T09:16:53.116Z,6.40
2022-11-18T09:22:16.189Z,6.40
2022-11-18T09:24:42.818Z,6.40
2022-11-18T09:27:15.192Z,6.40
2022-11-18T09:29:43.376Z,6.40
2022-11-18T09:32:09.889Z,6.50
2022-11-18T09:34:36.448Z,6.50
2022-11-18T09:37:06.155Z,6.50
2022-11-18T09:39:36.180Z,6.60
2022-11-18T09:45:02.947Z,6.80
2022-11-18T09:47:34.555Z,6.80
2022-11-18T09:50:42.216Z,6.80
2022-11-18T09:53:25.312Z,6.90
2022-11-18T09:55:54.187Z,6.90
2022-11-18T09:58:54.216Z,6.80
2022-11-18T10:01:21.227Z,6.90
2022-11-18T10:03:47.832Z,6.90
2022-11-18T10:06:26.769Z,6.90
2022-11-18T10:10:27.124Z,6.90
2022-11-18T10:13:18.896Z,6.80
2022-11-18T10:16:26.856Z,6.70
2022-11-18T10:19:28.773Z,6.90
2022-11-18T10:22:55.769Z,7.00
2022-11-18T10:25:22.885Z,7.20
2022-11-18T10:27:50.706Z,7.30
2022-11-18T10:30:24.171Z,7.20
2022-11-18T10:33:04.090Z,7.20
2022-11-18T10:35:37.887Z,7.20
2022-11-18T10:38:24.206Z,7.30
2022-11-18T10:41:08.701Z,7.30
2022-11-18T10:43:51.988Z,7.40
2022-11-18T10:46:35.027Z,7.50
2022-11-18T10:49:16.577Z,7.50
2022-11-18T10:52:11.985Z,7.60
2022-11-18T10:54:39.166Z,7.80
2022-11-18T10:57:30.450Z,7.80
2022-11-18T10:59:57.796Z,8.00
2022-11-18T11:02:42.336Z,7.90
2022-11-18T11:05:22.473Z,8.00
2022-11-18T11:08:34.591Z,8.00
2022-11-18T11:11:03.239Z,8.00
2022-11-18T11:13:31.892Z,8.10
2022-11-18T11:16:05.022Z,8.10
2022-11-18T11:18:41.985Z,8.20
2022-11-18T11:21:17.124Z,8.20
2022-11-18T11:23:45.322Z,8.30
2022-11-18T11:32:33.353Z,8.40
2022-11-18T11:35:37.743Z,8.40
2022-11-18T11:38:45.241Z,8.60
2022-11-18T11:41:30.793Z,8.50
2022-11-18T11:47:26.470Z,8.50
2022-11-18T11:50:13.315Z,8.50
2022-11-18T11:53:19.883Z,8.50
2022-11-18T12:00:31.933Z,8.60
2022-11-18T12:05:38.571Z,8.70
2022-11-18T12:08:28.744Z,9.20
2022-11-18T12:12:55.773Z,9.30
2022-11-18T12:17:21.390Z,9.60
2022-11-18T12:19:47.876Z,9.90
2022-11-18T12:22:14.324Z,10.00
2022-11-18T12:24:42.591Z,10.00
2022-11-18T12:30:57.301Z,10.10
2022-11-18T12:33:23.889Z,10.20
2022-11-18T12:35:51.269Z,10.40
2022-11-18T12:38:31.851Z,10.50
2022-11-18T12:40:58.331Z,10.50
2022-11-18T12:44:51.310Z,10.40
2022-11-18T12:50:12.937Z,10.30
2022-11-18T12:52:49.203Z,10.10
2022-11-18T12:55:25.947Z,10.00
2022-11-18T12:57:52.476Z,9.90
2022-11-18T13:00:31.101Z,9.80
2022-11-18T13:03:00.867Z,9.80
2022-11-18T13:05:31.788Z,9.70
2022-11-18T13:08:13.057Z,9.70
2022-11-18T13:11:15.237Z,9.70
2022-11-18T13:13:43.295Z,9.70
2022-11-18T13:16:42.226Z,9.70
2022-11-18T13:19:09.092Z,9.80
2022-11-18T13:21:54.647Z,9.90
2022-11-18T13:24:22.583Z,9.80
2022-11-18T13:26:58.340Z,9.80
2022-11-18T13:30:09.670Z,9.80
2022-11-18T13:32:36.205Z,9.80
2022-11-18T13:35:21.433Z,9.90
2022-11-18T13:38:00.508Z,9.90
2022-11-18T13:41:04.252Z,10.00
2022-11-18T13:43:31.608Z,9.80
2022-11-18T13:46:04.121Z,9.90
2022-11-18T13:48:34.471Z,9.80
2022-11-18T13:51:01.800Z,9.90
2022-11-18T13:53:37.368Z,9.80
2022-11-18T13:56:19.550Z,9.80
2022-11-18T13:59:16.494Z,9.80
2022-11-18T14:01:46.961Z,9.70
2022-11-18T14:04:22.467Z,9.50
2022-11-18T14:06:49.634Z,9.50
2022-11-18T14:09:30.373Z,9.40
2022-11-18T14:12:06.656Z,9.40
2022-11-18T14:14:42.028Z,9.30
2022-11-18T14:18:45.870Z,9.40
2022-11-18T14:21:13.020Z,9.40
2022-11-18T14:23:43.432Z,9.40
2022-11-18T14:26:10.008Z,9.30
2022-11-18T14:28:37.792Z,9.20
2022-11-18T14:31:30.124Z,9.30
2022-11-18T14:34:27.323Z,9.20
2022-11-18T14:36:55.452Z,9.10
2022-11-18T14:39:40.365Z,9.10
2022-11-18T14:42:12.503Z,9.10
2022-11-18T14:44:38.952Z,9.00
2022-11-18T14:47:24.327Z,9.00
2022-11-18T14:49:50.919Z,9.00
2022-11-18T14:52:17.396Z,9.00
2022-11-18T14:54:43.855Z,9.00
2022-11-18T14:57:16.440Z,9.00
2022-11-18T14:59:43.053Z,8.90
2022-11-18T15:02:16.755Z,8.90
2022-11-18T15:04:43.748Z,8.90
2022-11-18T15:07:18.538Z,8.80
2022-11-18T15:09:45.302Z,8.70
2022-11-18T15:12:11.777Z,8.60
2022-11-18T15:14:38.224Z,8.60
2022-11-18T15:17:04.964Z,8.50
2022-11-18T15:19:32.325Z,8.50
2022-11-18T15:21:58.891Z,8.50
2022-11-18T15:24:25.401Z,8.50
2022-11-18T15:26:51.852Z,8.50
2022-11-18T15:29:22.876Z,8.50
2022-11-18T15:31:50.357Z,8.60
2022-11-18T15:34:19.416Z,8.60
2022-11-18T15:36:46.322Z,8.60
2022-11-18T15:39:13.127Z,8.50
2022-11-18T15:41:42.251Z,8.50
2022-11-18T15:44:10.640Z,8.40
2022-11-18T15:46:38.119Z,8.40
2022-11-18T15:49:04.658Z,8.40
2022-11-18T15:51:32.503Z,8.40
2022-11-18T15:53:58.995Z,8.40
2022-11-18T15:56:32.988Z,8.30
2022-11-18T15:59:32.809Z,8.20
2022-11-18T16:01:59.256Z,8.20
2022-11-18T16:04:26.544Z,8.30
2022-11-18T16:06:53.205Z,8.30
2022-11-18T16:09:19.928Z,8.30
2022-11-18T16:12:04.664Z,8.20
2022-11-18T16:14:31.275Z,8.10
2022-11-18T16:16:57.769Z,8.10
2022-11-18T16:19:26.352Z,8.00
2022-11-18T16:21:56.115Z,7.90
2022-11-18T16:24:29.083Z,7.90
2022-11-18T16:26:55.986Z,7.90
2022-11-18T16:29:23.325Z,7.80
2022-11-18T16:31:51.712Z,7.90
2022-11-18T16:34:25.279Z,7.80
2022-11-18T16:36:58.903Z,7.90
2022-11-18T16:39:27.603Z,7.80
2022-11-18T16:42:02.131Z,7.80
2022-11-18T16:44:33.101Z,7.90
2022-11-18T16:46:59.577Z,7.80
2022-11-18T16:49:27.114Z,7.80
2022-11-18T16:51:55.716Z,7.90
2022-11-18T16:54:28.468Z,8.00
2022-11-18T16:56:57.326Z,7.90
2022-11-18T16:59:29.604Z,7.80
2022-11-18T17:01:58.274Z,7.80
2022-11-18T17:04:26.860Z,7.80
2022-11-18T17:06:54.993Z,7.80
2022-11-18T17:09:23.715Z,7.70
2022-11-18T17:11:52.491Z,7.70
2022-11-18T17:14:19.349Z,7.70
2022-11-18T17:16:45.893Z,7.70
2022-11-18T17:19:19.443Z,7.70
2022-11-18T17:21:46.716Z,7.70
2022-11-18T17:24:16.163Z,7.60
2022-11-18T17:26:43.248Z,7.70
2022-11-18T17:29:12.365Z,7.60
2022-11-18T17:31:40.190Z,7.60
2022-11-18T17:34:10.380Z,7.50
2022-11-18T17:36:36.903Z,7.50
2022-11-18T17:39:03.416Z,7.60
2022-11-18T17:41:48.374Z,7.50
2022-11-18T17:44:17.563Z,7.50
2022-11-18T17:46:46.292Z,7.40
2022-11-18T17:49:17.074Z,7.40
2022-11-18T17:51:45.243Z,7.30
2022-11-18T17:54:12.511Z,7.30
2022-11-18T17:56:39.134Z,7.30
2022-11-18T17:59:06.872Z,7.20
2022-11-18T18:01:33.389Z,7.10
2022-11-18T18:03:59.901Z,7.10
2022-11-18T18:06:26.446Z,7.10
2022-11-18T18:08:58.023Z,7.10
2022-11-18T18:11:26.250Z,7.00
2022-11-18T18:14:11.452Z,7.00
2022-11-18T18:16:47.196Z,7.00
2022-11-18T18:19:18.213Z,6.90
2022-11-18T18:21:45.217Z,6.80
2022-11-18T18:24:13.981Z,6.70
2022-11-18T18:26:40.473Z,6.60
2022-11-18T18:29:07.011Z,6.60
2022-11-18T18:31:36.172Z,6.30
2022-11-18T18:34:03.758Z,6.40
2022-11-18T18:36:30.275Z,6.50
2022-11-18T18:38:57.858Z,6.60
2022-11-18T18:41:24.326Z,6.70
2022-11-18T18:43:50.827Z,6.80
2022-11-18T18:46:30.211Z,6.80
2022-11-18T18:49:19.545Z,6.90
2022-11-18T18:51:48.715Z,6.90
2022-11-18T18:54:18.328Z,7.10
2022-11-18T18:56:45.184Z,7.20
2022-11-18T18:59:11.692Z,7.30
2022-11-18T19:01:38.958Z,7.30
2022-11-18T19:04:10.507Z,7.20
2022-11-18T19:06:52.026Z,7.20
2022-11-18T19:09:24.958Z,7.10
2022-11-18T19:12:09.771Z,7.20
2022-11-18T19:14:36.346Z,7.20
2022-11-18T19:17:09.519Z,7.20
2022-11-18T19:19:56.475Z,7.30
2022-11-18T19:22:23.367Z,7.20
2022-11-18T19:24:50.972Z,7.10
2022-11-18T19:27:18.969Z,7.10
2022-11-18T19:29:45.701Z,7.00
2022-11-18T19:32:12.512Z,7.00
2022-11-18T19:34:39.003Z,6.90
2022-11-18T19:37:05.497Z,6.90
2022-11-18T19:39:31.951Z,6.90
2022-11-18T19:41:58.425Z,6.80
2022-11-18T19:44:24.948Z,6.70
2022-11-18T19:46:51.483Z,6.70
2022-11-18T19:49:18.366Z,6.70
2022-11-18T19:51:45.143Z,6.70
2022-11-18T19:54:11.611Z,6.80
2022-11-18T19:56:38.449Z,6.80
2022-11-18T19:59:04.943Z,6.80
2022-11-18T20:01:32.024Z,6.70
2022-11-18T20:04:04.442Z,6.60
2022-11-18T20:06:33.088Z,6.70
2022-11-18T20:08:59.555Z,6.70
2022-11-18T20:11:27.251Z,6.80
2022-11-18T20:13:53.736Z,6.80
2022-11-18T20:16:23.808Z,6.70
2022-11-18T20:19:00.005Z,6.70
2022-11-18T20:21:28.461Z,6.70
2022-11-18T20:24:00.962Z,6.80
2022-11-18T20:26:32.319Z,6.80
2022-11-18T20:28:58.764Z,7.00
2022-11-18T20:31:26.454Z,6.90
2022-11-18T20:33:55.306Z,6.80
2022-11-18T20:36:31.406Z,6.70
2022-11-18T20:39:05.245Z,6.70
2022-11-18T20:41:31.895Z,6.90
2022-11-18T20:43:59.671Z,6.80
2022-11-18T20:46:26.750Z,6.90
2022-11-18T20:48:53.909Z,6.80
2022-11-18T20:51:26.404Z,6.80
2022-11-18T20:53:55.185Z,6.70
2022-11-18T20:56:27.016Z,6.60
2022-11-18T20:58:55.381Z,6.60
2022-11-18T21:01:26.328Z,6.50
2022-11-18T21:03:59.532Z,6.40
2022-11-18T21:06:29.585Z,6.40
2022-11-18T21:09:03.235Z,6.20
2022-11-18T21:11:32.617Z,6.30
2022-11-18T21:14:22.968Z,6.10
2022-11-18T21:17:00.695Z,6.20
2022-11-18T21:19:28.712Z,6.30
2022-11-18T21:21:56.232Z,6.30
2022-11-18T21:24:33.987Z,6.30
2022-11-18T21:27:02.616Z,6.30
2022-11-18T21:29:31.879Z,6.40
2022-11-18T21:32:02.074Z,6.30
2022-11-18T21:34:29.060Z,6.30
2022-11-18T21:36:55.640Z,6.20
2022-11-18T21:39:25.262Z,6.20
2022-11-18T21:41:56.208Z,6.30
2022-11-18T21:44:26.950Z,6.40
2022-11-18T21:46:53.510Z,6.20
2022-11-18T21:49:20.255Z,6.20
2022-11-18T21:51:46.867Z,6.30
2022-11-18T21:54:15.044Z,6.20
2022-11-18T21:56:41.494Z,6.30
2022-11-18T21:59:08.008Z,6.30
2022-11-18T22:01:34.837Z,6.30
2022-11-18T22:04:04.042Z,6.40
2022-11-18T22:06:33.410Z,6.40
2022-11-18T22:09:02.338Z,6.30
2022-11-18T22:11:28.983Z,6.20
2022-11-18T22:13:55.472Z,6.00
2022-11-18T22:16:24.425Z,6.00
2022-11-18T22:18:59.159Z,6.10
2022-11-18T22:21:26.811Z,6.10
2022-11-18T22:23:58.900Z,6.20
2022-11-18T22:26:25.513Z,6.10
2022-11-18T22:28:54.930Z,6.00
2022-11-18T22:31:23.546Z,5.90
2022-11-18T22:33:51.717Z,5.80
2022-11-18T22:36:21.046Z,5.70
2022-11-18T22:38:48.213Z,5.80
2022-11-18T22:41:39.385Z,5.70
2022-11-18T22:44:08.473Z,5.80
2022-11-18T22:46:40.052Z,5.90
2022-11-18T22:49:08.113Z,5.80
2022-11-18T22:51:36.558Z,5.80
2022-11-18T22:57:00.974Z,5.60
2022-11-18T22:59:27.422Z,5.60
2022-11-18T23:01:53.888Z,5.70
2022-11-18T23:04:20.522Z,5.50
2022-11-18T23:06:48.379Z,5.50
2022-11-18T23:09:15.169Z,5.50
2022-11-18T23:11:59.885Z,5.60
2022-11-18T23:14:26.445Z,5.60
2022-11-18T23:16:53.117Z,5.50
2022-11-18T23:19:19.809Z,5.40
2022-11-18T23:21:46.684Z,5.40
2022-11-18T23:24:15.584Z,5.30
2022-11-18T23:26:42.990Z,5.30
2022-11-18T23:29:11.761Z,5.30
2022-11-18T23:31:42.083Z,5.30
2022-11-18T23:34:11.657Z,5.50
2022-11-18T23:36:38.381Z,5.40
2022-11-18T23:39:05.254Z,5.50
2022-11-18T23:41:31.800Z,5.30
2022-11-18T23:43:58.269Z,5.30
2022-11-18T23:46:26.690Z,5.30
2022-11-18T23:48:53.494Z,5.40
2022-11-18T23:51:22.584Z,5.50
2022-11-18T23:53:54.116Z,5.60
2022-11-18T23:56:24.464Z,5.70
2022-11-18T23:58:53.608Z,5.70
